createdAt,value
2023-01-13T00:00:07.000Z,6.89
2023-01-13T00:05:07.000Z,6.94
2023-01-13T00:09:52.000Z,6.76
2023-01-13T00:15:07.000Z,6.84
2023-01-13T00:20:07.000Z,6.89
2023-01-13T00:25:07.000Z,7.01
2023-01-13T00:30:07.000Z,7.10
2023-01-13T00:35:07.000Z,7.16
2023-01-13T00:39:52.000Z,7.28
2023-01-13T00:45:07.000Z,7.12
2023-01-13T00:50:07.000Z,7.10
2023-01-13T00:55:07.000Z,7.01
2023-01-13T00:59:53.000Z,7.02
2023-01-13T01:04:52.000Z,7.01
2023-01-13T01:09:53.000Z,7.23
2023-01-13T01:15:07.000Z,7.24
2023-01-13T01:20:07.000Z,7.28
2023-01-13T01:25:07.000Z,7.40
2023-01-13T01:30:07.000Z,7.46
2023-01-13T01:35:07.000Z,7.50
2023-01-13T01:39:52.000Z,7.52
2023-01-13T01:45:07.000Z,7.53
2023-01-13T01:50:07.000Z,7.53
2023-01-13T01:55:07.000Z,7.52
2023-01-13T01:59:52.000Z,7.46
2023-01-13T02:04:52.000Z,7.41
2023-01-13T02:10:07.000Z,7.34
2023-01-13T02:15:07.000Z,7.29
2023-01-13T02:19:52.000Z,7.26
2023-01-13T02:24:52.000Z,7.26
2023-01-13T02:29:52.000Z,7.24
2023-01-13T02:34:52.000Z,7.23
2023-01-13T02:39:52.000Z,7.19
2023-01-13T02:44:53.000Z,7.22
2023-01-13T02:50:07.000Z,7.22
2023-01-13T02:54:52.000Z,7.23
2023-01-13T02:59:52.000Z,7.19
2023-01-13T03:04:52.000Z,7.15
2023-01-13T03:09:52.000Z,7.12
2023-01-13T03:15:07.000Z,7.08
2023-01-13T03:20:07.000Z,7.03
2023-01-13T03:24:52.000Z,7.02
2023-01-13T03:29:52.000Z,7.05
2023-01-13T03:34:52.000Z,7.07
2023-01-13T03:40:07.000Z,7.07
2023-01-13T03:45:07.000Z,7.14
2023-01-13T03:50:07.000Z,7.13
2023-01-13T03:54:52.000Z,7.14
2023-01-13T04:00:07.000Z,7.10
2023-01-13T04:04:52.000Z,7.07
2023-01-13T04:10:07.000Z,7.05
2023-01-13T04:15:07.000Z,7.04
2023-01-13T04:19:52.000Z,7.50
2023-01-13T04:24:52.000Z,7.34
2023-01-13T04:29:52.000Z,7.10
2023-01-13T04:34:52.000Z,7.09
2023-01-13T04:40:07.000Z,7.05
2023-01-13T04:44:52.000Z,7.04
2023-01-13T04:49:52.000Z,7.07
2023-01-13T04:54:52.000Z,6.99
2023-01-13T04:59:52.000Z,7.00
2023-01-13T05:05:07.000Z,7.00
2023-01-13T05:10:07.000Z,7.01
2023-01-13T05:14:53.000Z,6.99
2023-01-13T05:19:52.000Z,7.00
2023-01-13T05:25:07.000Z,7.05
2023-01-13T05:30:07.000Z,7.03
2023-01-13T05:35:07.000Z,7.04
2023-01-13T05:40:07.000Z,7.07
2023-01-13T05:44:52.000Z,7.07
2023-01-13T05:49:52.000Z,7.09
2023-01-13T05:54:52.000Z,7.22
2023-01-13T05:59:52.000Z,7.31
2023-01-13T06:05:07.000Z,7.20
2023-01-13T06:10:07.000Z,7.22
2023-01-13T06:14:52.000Z,7.31
2023-01-13T06:19:52.000Z,7.32
2023-01-13T06:24:52.000Z,7.10
2023-01-13T06:30:07.000Z,7.09
2023-01-13T06:35:07.000Z,7.10
2023-01-13T06:39:52.000Z,7.08
2023-01-13T06:44:52.000Z,7.16
2023-01-13T06:49:52.000Z,7.09
2023-01-13T06:55:07.000Z,7.04
2023-01-13T07:00:08.000Z,7.14
2023-01-13T07:05:07.000Z,7.04
2023-01-13T07:09:52.000Z,7.08
2023-01-13T07:14:52.000Z,7.09
2023-01-13T07:19:52.000Z,7.13
2023-01-13T07:24:52.000Z,7.22
2023-01-13T07:29:52.000Z,7.30
2023-01-13T07:35:08.000Z,7.05
2023-01-13T07:39:53.000Z,7.14
2023-01-13T07:45:08.000Z,7.03
2023-01-13T07:49:53.000Z,6.96
2023-01-13T07:55:08.000Z,7.01
2023-01-13T08:00:07.000Z,7.05
2023-01-13T08:04:52.000Z,7.02
2023-01-13T08:09:52.000Z,7.01
2023-01-13T08:15:07.000Z,7.28
2023-01-13T08:20:10.000Z,7.26
2023-01-13T08:25:07.000Z,7.20
2023-01-13T08:30:07.000Z,7.01
2023-01-13T08:34:52.000Z,7.02
2023-01-13T08:39:52.000Z,7.34
2023-01-13T08:44:52.000Z,7.14
2023-01-13T08:50:07.000Z,7.34
2023-01-13T08:54:52.000Z,7.10
2023-01-13T09:00:08.000Z,7.24
2023-01-13T09:04:53.000Z,7.42
2023-01-13T09:09:52.000Z,7.41
2023-01-13T09:14:52.000Z,7.16
2023-01-13T09:19:53.000Z,7.17
2023-01-13T09:25:08.000Z,7.41
2023-01-13T09:30:07.000Z,7.26
2023-01-13T09:34:52.000Z,7.46
2023-01-13T09:39:52.000Z,7.26
2023-01-13T09:44:52.000Z,7.62
2023-01-13T09:49:52.000Z,7.37
2023-01-13T09:55:07.000Z,7.61
2023-01-13T10:00:07.000Z,7.69
2023-01-13T10:04:52.000Z,7.64
2023-01-13T10:09:52.000Z,7.34
2023-01-13T10:14:53.000Z,7.37
2023-01-13T10:20:07.000Z,7.28
2023-01-13T10:24:53.000Z,7.34
2023-01-13T10:29:52.000Z,7.41
2023-01-13T10:34:52.000Z,7.40
2023-01-13T10:39:53.000Z,7.65
2023-01-13T10:44:53.000Z,7.60
2023-01-13T10:50:07.000Z,7.62
2023-01-13T10:55:07.000Z,7.69
2023-01-13T10:59:53.000Z,7.55
2023-01-13T11:05:08.000Z,7.79
2023-01-13T11:10:07.000Z,7.81
2023-01-13T11:15:07.000Z,7.46
2023-01-13T11:20:08.000Z,7.71
2023-01-13T11:25:08.000Z,7.47
2023-01-13T11:29:52.000Z,7.40
2023-01-13T11:35:07.000Z,7.69
2023-01-13T11:40:08.000Z,7.73
2023-01-13T11:45:07.000Z,7.65
2023-01-13T11:50:07.000Z,7.17
2023-01-13T11:55:07.000Z,7.40
2023-01-13T11:59:53.000Z,7.43
2023-01-13T12:05:08.000Z,7.46
2023-01-13T12:09:53.000Z,7.44
2023-01-13T12:15:07.000Z,7.41
2023-01-13T12:20:07.000Z,7.43
2023-01-13T12:24:53.000Z,7.43
2023-01-13T12:29:53.000Z,7.49
2023-01-13T12:34:53.000Z,7.48
2023-01-13T12:39:53.000Z,7.43
2023-01-13T12:45:07.000Z,7.38
2023-01-13T12:50:08.000Z,7.41
2023-01-13T12:54:53.000Z,7.41
2023-01-13T12:59:53.000Z,7.45
2023-01-13T13:05:07.000Z,7.46
2023-01-13T13:09:53.000Z,7.47
2023-01-13T13:15:08.000Z,7.53
2023-01-13T13:20:08.000Z,7.56
2023-01-13T13:24:53.000Z,7.64
2023-01-13T13:29:53.000Z,7.86
2023-01-13T13:34:53.000Z,8.01
2023-01-13T13:39:53.000Z,8.06
2023-01-13T13:45:08.000Z,8.24
2023-01-13T13:49:53.000Z,8.30
2023-01-13T13:54:53.000Z,8.52
2023-01-13T13:59:53.000Z,8.60
2023-01-13T14:04:53.000Z,8.61
2023-01-13T14:10:08.000Z,8.62
2023-01-13T14:14:53.000Z,8.66
2023-01-13T14:19:53.000Z,8.74
2023-01-13T14:24:53.000Z,8.72
2023-01-13T14:29:53.000Z,8.65
2023-01-13T14:34:53.000Z,8.56
2023-01-13T14:39:53.000Z,8.44
2023-01-13T14:44:53.000Z,8.36
2023-01-13T14:49:53.000Z,8.33
2023-01-13T14:54:53.000Z,8.31
2023-01-13T14:59:53.000Z,8.27
2023-01-13T15:04:53.000Z,8.23
2023-01-13T15:10:08.000Z,8.22
2023-01-13T15:14:53.000Z,8.19
2023-01-13T15:19:53.000Z,8.16
2023-01-13T15:24:53.000Z,8.12
2023-01-13T15:29:53.000Z,8.11
2023-01-13T15:35:08.000Z,8.07
2023-01-13T15:40:08.000Z,8.03
2023-01-13T15:44:53.000Z,7.94
2023-01-13T15:49:53.000Z,7.88
2023-01-13T15:54:53.000Z,7.81
2023-01-13T15:59:53.000Z,7.76
2023-01-13T16:05:08.000Z,7.70
2023-01-13T16:09:53.000Z,7.65
2023-01-13T16:14:53.000Z,7.64
2023-01-13T16:19:53.000Z,7.64
2023-01-13T16:24:53.000Z,7.63
2023-01-13T16:29:53.000Z,7.63
2023-01-13T16:34:53.000Z,7.63
2023-01-13T16:40:08.000Z,7.63
2023-01-13T16:44:53.000Z,7.62
2023-01-13T16:49:53.000Z,7.64
2023-01-13T16:54:53.000Z,7.63
2023-01-13T16:59:53.000Z,7.58
2023-01-13T17:05:08.000Z,7.52
2023-01-13T17:09:53.000Z,7.46
2023-01-13T17:14:53.000Z,7.41
2023-01-13T17:19:53.000Z,7.37
2023-01-13T17:24:53.000Z,7.34
2023-01-13T17:30:08.000Z,7.27
2023-01-13T17:34:53.000Z,7.22
2023-01-13T17:39:53.000Z,7.17
2023-01-13T17:44:53.000Z,7.14
2023-01-13T17:49:53.000Z,7.12
2023-01-13T17:54:53.000Z,7.10
2023-01-13T17:59:53.000Z,6.80
2023-01-13T18:04:53.000Z,7.03
2023-01-13T18:09:53.000Z,6.95
2023-01-13T18:14:53.000Z,6.86
2023-01-13T18:19:53.000Z,6.74
2023-01-13T18:25:08.000Z,6.70
2023-01-13T18:29:53.000Z,6.66
2023-01-13T18:34:53.000Z,6.58
2023-01-13T18:39:53.000Z,6.51
2023-01-13T18:44:53.000Z,6.54
2023-01-13T18:49:53.000Z,6.56
2023-01-13T18:54:53.000Z,6.56
2023-01-13T18:59:53.000Z,6.63
2023-01-13T19:04:53.000Z,6.64
2023-01-13T19:09:53.000Z,6.66
2023-01-13T19:14:53.000Z,6.70
2023-01-13T19:20:08.000Z,6.74
2023-01-13T19:24:53.000Z,6.75
2023-01-13T19:29:53.000Z,6.76
2023-01-13T19:34:53.000Z,6.76
2023-01-13T19:39:53.000Z,6.80
2023-01-13T19:44:53.000Z,6.79
2023-01-13T19:49:53.000Z,6.76
2023-01-13T19:54:53.000Z,6.73
2023-01-13T19:59:53.000Z,6.70
2023-01-13T20:04:53.000Z,6.67
2023-01-13T20:09:53.000Z,6.51
2023-01-13T20:14:53.000Z,6.57
2023-01-13T20:20:09.000Z,6.54
2023-01-13T20:24:53.000Z,6.50
2023-01-13T20:29:53.000Z,6.52
2023-01-13T20:34:53.000Z,6.55
2023-01-13T20:39:53.000Z,6.60
2023-01-13T20:44:53.000Z,6.64
2023-01-13T20:49:53.000Z,6.64
2023-01-13T20:55:08.000Z,6.63
2023-01-13T20:59:53.000Z,6.41
2023-01-13T21:04:53.000Z,6.64
2023-01-13T21:09:53.000Z,6.64
2023-01-13T21:14:53.000Z,6.63
2023-01-13T21:19:53.000Z,6.65
2023-01-13T21:24:53.000Z,6.65
2023-01-13T21:29:53.000Z,6.66
2023-01-13T21:34:53.000Z,6.67
2023-01-13T21:39:53.000Z,6.64
2023-01-13T21:44:53.000Z,6.59
2023-01-13T21:49:53.000Z,6.55
2023-01-13T21:54:53.000Z,6.52
2023-01-13T21:59:53.000Z,6.46
2023-01-13T22:04:53.000Z,6.41
2023-01-13T22:09:53.000Z,6.39
2023-01-13T22:14:53.000Z,6.39
2023-01-13T22:19:53.000Z,6.38
2023-01-13T22:24:53.000Z,6.37
2023-01-13T22:30:08.000Z,6.39
2023-01-13T22:34:53.000Z,6.39
2023-01-13T22:39:53.000Z,6.37
2023-01-13T22:45:08.000Z,6.36
2023-01-13T22:49:53.000Z,6.33
2023-01-13T22:54:53.000Z,6.33
2023-01-13T22:59:53.000Z,6.28
2023-01-13T23:05:08.000Z,6.23
2023-01-13T23:09:53.000Z,6.22
2023-01-13T23:14:53.000Z,6.17
2023-01-13T23:19:53.000Z,6.06
2023-01-13T23:24:53.000Z,6.05
2023-01-13T23:29:53.000Z,5.99
2023-01-13T23:34:53.000Z,5.86
2023-01-13T23:39:53.000Z,5.71
2023-01-13T23:44:53.000Z,5.61
2023-01-13T23:49:53.000Z,5.46
2023-01-13T23:54:53.000Z,5.25
2023-01-13T23:59:53.000Z,5.15
